sensor_id;sensor_type;location;lat;lon;timestamp;P1;durP1;ratioP1;P2;durP2;ratioP2
67500;SDS011;54349;52.528;19.760;2023-02-11T00:01:35;18.00;;;9.70;;
67500;SDS011;54349;52.528;19.760;2023-02-11T00:04:05;16.80;;;10.10;;
67500;SDS011;54349;52.528;19.760;2023-02-11T00:06:35;17.70;;;9.50;;
67500;SDS011;54349;52.528;19.760;2023-02-11T00:09:04;17.60;;;9.70;;
67500;SDS011;54349;52.528;19.760;2023-02-11T00:11:33;16.50;;;9.40;;
67500;SDS011;54349;52.528;19.760;2023-02-11T00:14:04;17.30;;;8.80;;
67500;SDS011;54349;52.528;19.760;2023-02-11T00:16:35;17.00;;;8.40;;
67500;SDS011;54349;52.528;19.760;2023-02-11T00:19:03;15.50;;;8.20;;
67500;SDS011;54349;52.528;19.760;2023-02-11T00:21:33;17.60;;;9.40;;
67500;SDS011;54349;52.528;19.760;2023-02-11T00:24:02;16.50;;;9.20;;
67500;SDS011;54349;52.528;19.760;2023-02-11T00:26:33;15.90;;;9.30;;
67500;SDS011;54349;52.528;19.760;2023-02-11T00:29:03;19.50;;;10.20;;
67500;SDS011;54349;52.528;19.760;2023-02-11T00:31:32;16.80;;;9.10;;
67500;SDS011;54349;52.528;19.760;2023-02-11T00:34:01;16.00;;;8.40;;
67500;SDS011;54349;52.528;19.760;2023-02-11T00:36:30;15.70;;;8.30;;
67500;SDS011;54349;52.528;19.760;2023-02-11T00:38:59;16.20;;;9.30;;
67500;SDS011;54349;52.528;19.760;2023-02-11T00:41:28;15.60;;;9.30;;
67500;SDS011;54349;52.528;19.760;2023-02-11T00:44:00;15.90;;;9.10;;
67500;SDS011;54349;52.528;19.760;2023-02-11T00:46:29;15.80;;;8.90;;
67500;SDS011;54349;52.528;19.760;2023-02-11T00:48:58;14.80;;;8.80;;
67500;SDS011;54349;52.528;19.760;2023-02-11T00:51:27;13.90;;;8.40;;
67500;SDS011;54349;52.528;19.760;2023-02-11T00:53:56;14.50;;;8.50;;
67500;SDS011;54349;52.528;19.760;2023-02-11T00:56:25;16.10;;;8.70;;
67500;SDS011;54349;52.528;19.760;2023-02-11T00:58:56;15.30;;;8.70;;
67500;SDS011;54349;52.528;19.760;2023-02-11T01:01:24;17.00;;;8.60;;
67500;SDS011;54349;52.528;19.760;2023-02-11T01:03:53;14.80;;;8.60;;
67500;SDS011;54349;52.528;19.760;2023-02-11T01:06:22;16.20;;;8.70;;
67500;SDS011;54349;52.528;19.760;2023-02-11T01:08:51;17.20;;;8.10;;
67500;SDS011;54349;52.528;19.760;2023-02-11T01:11:19;15.80;;;8.30;;
67500;SDS011;54349;52.528;19.760;2023-02-11T01:13:49;16.00;;;9.20;;
67500;SDS011;54349;52.528;19.760;2023-02-11T01:16:19;14.20;;;8.00;;
67500;SDS011;54349;52.528;19.760;2023-02-11T01:18:48;14.50;;;8.00;;
67500;SDS011;54349;52.528;19.760;2023-02-11T01:21:17;16.30;;;7.60;;
67500;SDS011;54349;52.528;19.760;2023-02-11T01:23:46;15.00;;;8.10;;
67500;SDS011;54349;52.528;19.760;2023-02-11T01:26:14;15.80;;;8.40;;
67500;SDS011;54349;52.528;19.760;2023-02-11T01:28:43;16.20;;;8.50;;
67500;SDS011;54349;52.528;19.760;2023-02-11T01:31:12;13.50;;;7.60;;
67500;SDS011;54349;52.528;19.760;2023-02-11T01:33:41;15.20;;;8.30;;
67500;SDS011;54349;52.528;19.760;2023-02-11T01:36:10;13.90;;;8.10;;
67500;SDS011;54349;52.528;19.760;2023-02-11T01:38:40;15.10;;;8.20;;
67500;SDS011;54349;52.528;19.760;2023-02-11T01:41:11;13.90;;;7.80;;
67500;SDS011;54349;52.528;19.760;2023-02-11T01:43:44;14.00;;;7.70;;
67500;SDS011;54349;52.528;19.760;2023-02-11T01:46:34;14.70;;;8.00;;
67500;SDS011;54349;52.528;19.760;2023-02-11T01:51:59;13.60;;;7.90;;
67500;SDS011;54349;52.528;19.760;2023-02-11T01:54:41;12.70;;;7.40;;
67500;SDS011;54349;52.528;19.760;2023-02-11T01:57:35;12.40;;;7.20;;
67500;SDS011;54349;52.528;19.760;2023-02-11T02:03:25;14.10;;;7.60;;
67500;SDS011;54349;52.528;19.760;2023-02-11T02:06:04;12.70;;;7.60;;
67500;SDS011;54349;52.528;19.760;2023-02-11T02:08:52;14.10;;;7.40;;
67500;SDS011;54349;52.528;19.760;2023-02-11T02:11:29;13.10;;;7.30;;
67500;SDS011;54349;52.528;19.760;2023-02-11T02:13:58;13.30;;;7.60;;
67500;SDS011;54349;52.528;19.760;2023-02-11T02:16:32;12.80;;;7.20;;
67500;SDS011;54349;52.528;19.760;2023-02-11T02:30:59;13.10;;;6.60;;
67500;SDS011;54349;52.528;19.760;2023-02-11T02:33:44;12.00;;;6.60;;
67500;SDS011;54349;52.528;19.760;2023-02-11T02:36:40;12.90;;;7.00;;
67500;SDS011;54349;52.528;19.760;2023-02-11T02:39:23;11.90;;;6.60;;
67500;SDS011;54349;52.528;19.760;2023-02-11T02:41:55;11.70;;;6.50;;
67500;SDS011;54349;52.528;19.760;2023-02-11T02:44:24;12.10;;;6.70;;
67500;SDS011;54349;52.528;19.760;2023-02-11T02:46:52;10.80;;;6.30;;
67500;SDS011;54349;52.528;19.760;2023-02-11T02:49:21;12.70;;;6.90;;
67500;SDS011;54349;52.528;19.760;2023-02-11T03:03:34;9.80;;;6.20;;
67500;SDS011;54349;52.528;19.760;2023-02-11T03:06:12;11.30;;;6.40;;
67500;SDS011;54349;52.528;19.760;2023-02-11T03:08:54;12.00;;;6.40;;
67500;SDS011;54349;52.528;19.760;2023-02-11T03:11:27;12.60;;;6.10;;
67500;SDS011;54349;52.528;19.760;2023-02-11T03:13:57;11.30;;;6.60;;
67500;SDS011;54349;52.528;19.760;2023-02-11T03:16:30;13.40;;;6.90;;
67500;SDS011;54349;52.528;19.760;2023-02-11T03:19:16;12.20;;;6.60;;
67500;SDS011;54349;52.528;19.760;2023-02-11T03:21:49;11.20;;;6.30;;
67500;SDS011;54349;52.528;19.760;2023-02-11T03:24:27;13.10;;;6.10;;
67500;SDS011;54349;52.528;19.760;2023-02-11T03:27:09;11.00;;;6.00;;
67500;SDS011;54349;52.528;19.760;2023-02-11T03:29:54;10.70;;;6.10;;
67500;SDS011;54349;52.528;19.760;2023-02-11T03:32:36;10.90;;;6.50;;
67500;SDS011;54349;52.528;19.760;2023-02-11T03:38:09;10.90;;;6.10;;
67500;SDS011;54349;52.528;19.760;2023-02-11T03:40:43;11.40;;;6.20;;
67500;SDS011;54349;52.528;19.760;2023-02-11T03:43:32;11.00;;;5.60;;
67500;SDS011;54349;52.528;19.760;2023-02-11T03:46:04;12.20;;;5.80;;
67500;SDS011;54349;52.528;19.760;2023-02-11T03:48:38;13.20;;;6.40;;
67500;SDS011;54349;52.528;19.760;2023-02-11T03:51:11;9.70;;;6.00;;
67500;SDS011;54349;52.528;19.760;2023-02-11T03:53:43;12.70;;;6.60;;
67500;SDS011;54349;52.528;19.760;2023-02-11T03:56:16;10.10;;;6.20;;
67500;SDS011;54349;52.528;19.760;2023-02-11T04:01:19;10.10;;;6.00;;
67500;SDS011;54349;52.528;19.760;2023-02-11T04:03:48;11.00;;;6.90;;
67500;SDS011;54349;52.528;19.760;2023-02-11T04:06:16;12.30;;;7.20;;
67500;SDS011;54349;52.528;19.760;2023-02-11T04:08:44;11.30;;;6.80;;
67500;SDS011;54349;52.528;19.760;2023-02-11T04:11:12;11.60;;;6.00;;
67500;SDS011;54349;52.528;19.760;2023-02-11T04:13:41;13.20;;;6.80;;
67500;SDS011;54349;52.528;19.760;2023-02-11T04:16:09;12.20;;;7.10;;
67500;SDS011;54349;52.528;19.760;2023-02-11T04:18:37;11.20;;;6.50;;
67500;SDS011;54349;52.528;19.760;2023-02-11T04:21:05;12.10;;;7.00;;
67500;SDS011;54349;52.528;19.760;2023-02-11T04:23:34;10.50;;;6.60;;
67500;SDS011;54349;52.528;19.760;2023-02-11T04:26:02;14.80;;;7.00;;
67500;SDS011;54349;52.528;19.760;2023-02-11T04:28:30;13.20;;;7.30;;
67500;SDS011;54349;52.528;19.760;2023-02-11T04:30:58;13.10;;;6.80;;
67500;SDS011;54349;52.528;19.760;2023-02-11T04:33:27;12.40;;;6.50;;
67500;SDS011;54349;52.528;19.760;2023-02-11T04:35:55;12.50;;;6.80;;
67500;SDS011;54349;52.528;19.760;2023-02-11T04:38:23;12.90;;;7.30;;
67500;SDS011;54349;52.528;19.760;2023-02-11T04:40:51;11.40;;;6.70;;
67500;SDS011;54349;52.528;19.760;2023-02-11T04:43:19;12.00;;;6.60;;
67500;SDS011;54349;52.528;19.760;2023-02-11T04:45:47;13.30;;;7.50;;
67500;SDS011;54349;52.528;19.760;2023-02-11T04:48:16;13.80;;;7.30;;
67500;SDS011;54349;52.528;19.760;2023-02-11T04:50:44;12.70;;;7.90;;
67500;SDS011;54349;52.528;19.760;2023-02-11T04:53:12;13.90;;;7.60;;
67500;SDS011;54349;52.528;19.760;2023-02-11T04:55:40;13.60;;;7.60;;
67500;SDS011;54349;52.528;19.760;2023-02-11T04:58:08;12.70;;;7.80;;
67500;SDS011;54349;52.528;19.760;2023-02-11T05:00:36;12.90;;;7.60;;
67500;SDS011;54349;52.528;19.760;2023-02-11T05:03:04;13.80;;;8.50;;
67500;SDS011;54349;52.528;19.760;2023-02-11T05:05:32;11.90;;;7.40;;
67500;SDS011;54349;52.528;19.760;2023-02-11T05:08:00;13.00;;;7.90;;
67500;SDS011;54349;52.528;19.760;2023-02-11T05:10:28;14.10;;;7.70;;
67500;SDS011;54349;52.528;19.760;2023-02-11T05:12:57;12.00;;;7.70;;
67500;SDS011;54349;52.528;19.760;2023-02-11T05:15:25;13.40;;;8.10;;
67500;SDS011;54349;52.528;19.760;2023-02-11T05:17:54;12.70;;;7.60;;
67500;SDS011;54349;52.528;19.760;2023-02-11T05:20:25;13.20;;;7.80;;
67500;SDS011;54349;52.528;19.760;2023-02-11T05:22:53;13.00;;;7.50;;
67500;SDS011;54349;52.528;19.760;2023-02-11T05:25:21;12.60;;;7.70;;
67500;SDS011;54349;52.528;19.760;2023-02-11T05:27:49;12.20;;;7.70;;
67500;SDS011;54349;52.528;19.760;2023-02-11T05:30:18;14.60;;;8.80;;
67500;SDS011;54349;52.528;19.760;2023-02-11T05:32:46;13.70;;;8.40;;
67500;SDS011;54349;52.528;19.760;2023-02-11T05:35:14;14.40;;;8.30;;
67500;SDS011;54349;52.528;19.760;2023-02-11T05:37:43;14.40;;;7.90;;
67500;SDS011;54349;52.528;19.760;2023-02-11T05:40:11;13.40;;;8.50;;
67500;SDS011;54349;52.528;19.760;2023-02-11T05:42:39;15.80;;;9.00;;
67500;SDS011;54349;52.528;19.760;2023-02-11T05:45:08;13.90;;;8.40;;
67500;SDS011;54349;52.528;19.760;2023-02-11T05:47:36;13.00;;;8.80;;
67500;SDS011;54349;52.528;19.760;2023-02-11T05:50:05;13.00;;;8.70;;
67500;SDS011;54349;52.528;19.760;2023-02-11T05:52:33;13.00;;;8.70;;
67500;SDS011;54349;52.528;19.760;2023-02-11T05:55:02;13.20;;;8.30;;
67500;SDS011;54349;52.528;19.760;2023-02-11T05:57:31;13.60;;;8.60;;
67500;SDS011;54349;52.528;19.760;2023-02-11T05:59:59;13.90;;;9.40;;
67500;SDS011;54349;52.528;19.760;2023-02-11T06:02:27;14.10;;;9.20;;
67500;SDS011;54349;52.528;19.760;2023-02-11T06:04:55;14.50;;;8.60;;
67500;SDS011;54349;52.528;19.760;2023-02-11T06:07:23;13.90;;;9.20;;
67500;SDS011;54349;52.528;19.760;2023-02-11T06:09:51;14.00;;;8.80;;
67500;SDS011;54349;52.528;19.760;2023-02-11T06:12:20;14.10;;;9.10;;
67500;SDS011;54349;52.528;19.760;2023-02-11T06:14:48;15.10;;;9.10;;
67500;SDS011;54349;52.528;19.760;2023-02-11T06:17:16;14.00;;;8.60;;
67500;SDS011;54349;52.528;19.760;2023-02-11T06:19:44;14.50;;;9.00;;
67500;SDS011;54349;52.528;19.760;2023-02-11T06:22:12;13.80;;;9.00;;
67500;SDS011;54349;52.528;19.760;2023-02-11T06:24:40;15.00;;;9.10;;
67500;SDS011;54349;52.528;19.760;2023-02-11T06:27:28;13.80;;;8.70;;
67500;SDS011;54349;52.528;19.760;2023-02-11T06:29:57;14.90;;;8.70;;
67500;SDS011;54349;52.528;19.760;2023-02-11T06:32:26;11.80;;;7.80;;
67500;SDS011;54349;52.528;19.760;2023-02-11T06:35:12;14.40;;;9.00;;
67500;SDS011;54349;52.528;19.760;2023-02-11T06:37:42;14.20;;;8.30;;
67500;SDS011;54349;52.528;19.760;2023-02-11T06:40:11;13.80;;;8.60;;
67500;SDS011;54349;52.528;19.760;2023-02-11T06:42:39;14.10;;;8.60;;
67500;SDS011;54349;52.528;19.760;2023-02-11T06:45:08;13.60;;;8.30;;
67500;SDS011;54349;52.528;19.760;2023-02-11T06:47:39;15.30;;;9.10;;
67500;SDS011;54349;52.528;19.760;2023-02-11T06:50:11;13.50;;;8.80;;
67500;SDS011;54349;52.528;19.760;2023-02-11T06:52:40;13.50;;;8.80;;
67500;SDS011;54349;52.528;19.760;2023-02-11T06:55:09;13.00;;;7.40;;
67500;SDS011;54349;52.528;19.760;2023-02-11T06:57:37;13.80;;;7.90;;
67500;SDS011;54349;52.528;19.760;2023-02-11T07:00:06;14.00;;;8.40;;
67500;SDS011;54349;52.528;19.760;2023-02-11T07:02:35;12.30;;;8.30;;
67500;SDS011;54349;52.528;19.760;2023-02-11T07:05:05;14.50;;;8.80;;
67500;SDS011;54349;52.528;19.760;2023-02-11T07:07:34;12.40;;;8.10;;
67500;SDS011;54349;52.528;19.760;2023-02-11T07:10:03;14.50;;;9.20;;
67500;SDS011;54349;52.528;19.760;2023-02-11T07:12:32;14.30;;;9.10;;
67500;SDS011;54349;52.528;19.760;2023-02-11T07:15:01;11.80;;;8.00;;
67500;SDS011;54349;52.528;19.760;2023-02-11T07:17:29;14.00;;;8.90;;
67500;SDS011;54349;52.528;19.760;2023-02-11T07:19:57;14.30;;;8.60;;
67500;SDS011;54349;52.528;19.760;2023-02-11T07:22:26;13.00;;;8.30;;
67500;SDS011;54349;52.528;19.760;2023-02-11T07:24:54;12.90;;;8.20;;
67500;SDS011;54349;52.528;19.760;2023-02-11T07:27:22;14.70;;;8.80;;
67500;SDS011;54349;52.528;19.760;2023-02-11T07:29:50;16.00;;;8.20;;
67500;SDS011;54349;52.528;19.760;2023-02-11T07:32:19;23.20;;;8.50;;
67500;SDS011;54349;52.528;19.760;2023-02-11T07:34:47;17.40;;;8.80;;
67500;SDS011;54349;52.528;19.760;2023-02-11T07:37:16;18.60;;;9.50;;
67500;SDS011;54349;52.528;19.760;2023-02-11T07:39:44;20.40;;;10.20;;
67500;SDS011;54349;52.528;19.760;2023-02-11T07:42:12;18.30;;;8.30;;
67500;SDS011;54349;52.528;19.760;2023-02-11T07:44:41;19.50;;;9.50;;
67500;SDS011;54349;52.528;19.760;2023-02-11T07:47:09;25.80;;;9.40;;
67500;SDS011;54349;52.528;19.760;2023-02-11T07:49:37;20.90;;;9.70;;
67500;SDS011;54349;52.528;19.760;2023-02-11T07:52:06;20.30;;;9.70;;
67500;SDS011;54349;52.528;19.760;2023-02-11T07:54:34;19.40;;;9.40;;
67500;SDS011;54349;52.528;19.760;2023-02-11T07:57:02;22.10;;;9.80;;
67500;SDS011;54349;52.528;19.760;2023-02-11T07:59:31;17.00;;;9.50;;
67500;SDS011;54349;52.528;19.760;2023-02-11T08:01:59;20.30;;;9.50;;
67500;SDS011;54349;52.528;19.760;2023-02-11T08:04:27;16.40;;;9.50;;
67500;SDS011;54349;52.528;19.760;2023-02-11T08:06:55;17.20;;;9.10;;
67500;SDS011;54349;52.528;19.760;2023-02-11T08:09:25;15.70;;;8.70;;
67500;SDS011;54349;52.528;19.760;2023-02-11T08:11:53;13.10;;;8.40;;
67500;SDS011;54349;52.528;19.760;2023-02-11T08:14:23;14.70;;;9.20;;
67500;SDS011;54349;52.528;19.760;2023-02-11T08:16:52;17.60;;;9.50;;
67500;SDS011;54349;52.528;19.760;2023-02-11T08:19:20;15.80;;;8.60;;
67500;SDS011;54349;52.528;19.760;2023-02-11T08:21:48;15.00;;;8.50;;
67500;SDS011;54349;52.528;19.760;2023-02-11T08:24:16;15.20;;;8.80;;
67500;SDS011;54349;52.528;19.760;2023-02-11T08:26:44;16.90;;;9.10;;
67500;SDS011;54349;52.528;19.760;2023-02-11T08:29:14;17.50;;;9.60;;
67500;SDS011;54349;52.528;19.760;2023-02-11T08:31:45;17.00;;;9.30;;
67500;SDS011;54349;52.528;19.760;2023-02-11T08:34:15;14.70;;;8.40;;
67500;SDS011;54349;52.528;19.760;2023-02-11T08:36:47;15.10;;;8.90;;
67500;SDS011;54349;52.528;19.760;2023-02-11T08:39:18;15.20;;;8.90;;
67500;SDS011;54349;52.528;19.760;2023-02-11T08:41:50;16.30;;;9.20;;
67500;SDS011;54349;52.528;19.760;2023-02-11T08:44:21;15.70;;;9.10;;
67500;SDS011;54349;52.528;19.760;2023-02-11T08:46:50;16.00;;;9.10;;
67500;SDS011;54349;52.528;19.760;2023-02-11T08:49:20;17.50;;;9.50;;
67500;SDS011;54349;52.528;19.760;2023-02-11T08:51:49;14.30;;;8.30;;
67500;SDS011;54349;52.528;19.760;2023-02-11T08:54:17;14.50;;;9.00;;
67500;SDS011;54349;52.528;19.760;2023-02-11T08:56:50;14.90;;;8.90;;
67500;SDS011;54349;52.528;19.760;2023-02-11T08:59:18;15.70;;;9.00;;
67500;SDS011;54349;52.528;19.760;2023-02-11T09:01:47;23.70;;;12.80;;
67500;SDS011;54349;52.528;19.760;2023-02-11T09:04:16;25.90;;;12.40;;
67500;SDS011;54349;52.528;19.760;2023-02-11T09:06:44;34.60;;;15.70;;
67500;SDS011;54349;52.528;19.760;2023-02-11T09:09:14;37.60;;;17.00;;
67500;SDS011;54349;52.528;19.760;2023-02-11T09:11:43;40.80;;;17.40;;
67500;SDS011;54349;52.528;19.760;2023-02-11T09:14:18;41.90;;;18.50;;
67500;SDS011;54349;52.528;19.760;2023-02-11T09:16:48;53.50;;;21.00;;
67500;SDS011;54349;52.528;19.760;2023-02-11T09:19:18;49.10;;;21.00;;
67500;SDS011;54349;52.528;19.760;2023-02-11T09:21:48;45.60;;;20.00;;
67500;SDS011;54349;52.528;19.760;2023-02-11T09:24:16;60.10;;;22.00;;
67500;SDS011;54349;52.528;19.760;2023-02-11T09:26:45;70.10;;;24.40;;
67500;SDS011;54349;52.528;19.760;2023-02-11T09:29:13;63.30;;;25.50;;
67500;SDS011;54349;52.528;19.760;2023-02-11T09:31:41;61.80;;;25.40;;
67500;SDS011;54349;52.528;19.760;2023-02-11T09:34:10;67.30;;;26.60;;
67500;SDS011;54349;52.528;19.760;2023-02-11T09:36:40;61.20;;;25.40;;
67500;SDS011;54349;52.528;19.760;2023-02-11T09:39:14;60.90;;;25.80;;
67500;SDS011;54349;52.528;19.760;2023-02-11T09:44:32;60.50;;;24.40;;
67500;SDS011;54349;52.528;19.760;2023-02-11T09:47:05;61.90;;;26.40;;
67500;SDS011;54349;52.528;19.760;2023-02-11T09:49:49;71.20;;;26.30;;
67500;SDS011;54349;52.528;19.760;2023-02-11T09:55:01;58.60;;;23.80;;
67500;SDS011;54349;52.528;19.760;2023-02-11T09:57:34;59.00;;;24.60;;
67500;SDS011;54349;52.528;19.760;2023-02-11T10:00:20;63.50;;;26.10;;
67500;SDS011;54349;52.528;19.760;2023-02-11T10:03:14;58.00;;;24.30;;
67500;SDS011;54349;52.528;19.760;2023-02-11T10:06:01;58.00;;;24.90;;
67500;SDS011;54349;52.528;19.760;2023-02-11T10:11:25;48.90;;;22.50;;
67500;SDS011;54349;52.528;19.760;2023-02-11T10:14:44;54.70;;;23.80;;
67500;SDS011;54349;52.528;19.760;2023-02-11T10:23:06;57.70;;;22.40;;
67500;SDS011;54349;52.528;19.760;2023-02-11T10:25:40;47.00;;;21.90;;
67500;SDS011;54349;52.528;19.760;2023-02-11T10:30:59;47.40;;;20.30;;
67500;SDS011;54349;52.528;19.760;2023-02-11T10:34:08;47.30;;;20.80;;
67500;SDS011;54349;52.528;19.760;2023-02-11T10:36:42;44.20;;;19.80;;
67500;SDS011;54349;52.528;19.760;2023-02-11T10:39:17;44.30;;;20.50;;
67500;SDS011;54349;52.528;19.760;2023-02-11T10:42:00;45.90;;;21.00;;
67500;SDS011;54349;52.528;19.760;2023-02-11T10:44:36;45.50;;;20.20;;
67500;SDS011;54349;52.528;19.760;2023-02-11T10:47:21;44.10;;;20.40;;
67500;SDS011;54349;52.528;19.760;2023-02-11T10:49:51;41.90;;;19.50;;
67500;SDS011;54349;52.528;19.760;2023-02-11T10:52:25;45.30;;;19.90;;
67500;SDS011;54349;52.528;19.760;2023-02-11T10:57:41;41.00;;;19.30;;
67500;SDS011;54349;52.528;19.760;2023-02-11T11:02:52;42.20;;;19.80;;
67500;SDS011;54349;52.528;19.760;2023-02-11T11:05:35;38.90;;;18.50;;
67500;SDS011;54349;52.528;19.760;2023-02-11T11:08:14;41.60;;;20.10;;
67500;SDS011;54349;52.528;19.760;2023-02-11T11:11:01;36.50;;;19.10;;
67500;SDS011;54349;52.528;19.760;2023-02-11T11:13:38;37.50;;;19.10;;
67500;SDS011;54349;52.528;19.760;2023-02-11T11:18:46;34.10;;;17.90;;
67500;SDS011;54349;52.528;19.760;2023-02-11T11:23:55;32.50;;;16.30;;
67500;SDS011;54349;52.528;19.760;2023-02-11T11:26:41;35.60;;;17.80;;
67500;SDS011;54349;52.528;19.760;2023-02-11T11:29:38;32.90;;;16.10;;
67500;SDS011;54349;52.528;19.760;2023-02-11T11:32:29;30.80;;;16.70;;
67500;SDS011;54349;52.528;19.760;2023-02-11T11:35:03;34.00;;;17.00;;
67500;SDS011;54349;52.528;19.760;2023-02-11T11:37:36;35.30;;;16.60;;
67500;SDS011;54349;52.528;19.760;2023-02-11T11:42:40;32.20;;;16.60;;
67500;SDS011;54349;52.528;19.760;2023-02-11T11:50:43;32.30;;;16.20;;
67500;SDS011;54349;52.528;19.760;2023-02-11T11:56:11;32.10;;;17.70;;
67500;SDS011;54349;52.528;19.760;2023-02-11T11:58:43;37.20;;;19.50;;
67500;SDS011;54349;52.528;19.760;2023-02-11T12:16:26;40.40;;;19.20;;
67500;SDS011;54349;52.528;19.760;2023-02-11T12:36:14;33.80;;;16.10;;
67500;SDS011;54349;52.528;19.760;2023-02-11T12:39:20;36.80;;;17.70;;
67500;SDS011;54349;52.528;19.760;2023-02-11T12:51:52;33.70;;;16.20;;
67500;SDS011;54349;52.528;19.760;2023-02-11T12:57:33;33.00;;;16.00;;
67500;SDS011;54349;52.528;19.760;2023-02-11T13:03:00;29.50;;;14.80;;
67500;SDS011;54349;52.528;19.760;2023-02-11T13:08:18;28.60;;;13.80;;
67500;SDS011;54349;52.528;19.760;2023-02-11T13:11:00;24.70;;;13.90;;
67500;SDS011;54349;52.528;19.760;2023-02-11T13:13:56;26.90;;;13.90;;
67500;SDS011;54349;52.528;19.760;2023-02-11T13:16:35;24.00;;;13.00;;
67500;SDS011;54349;52.528;19.760;2023-02-11T13:24:43;20.70;;;11.70;;
67500;SDS011;54349;52.528;19.760;2023-02-11T13:28:04;20.50;;;11.50;;
67500;SDS011;54349;52.528;19.760;2023-02-11T13:30:59;20.10;;;11.00;;
67500;SDS011;54349;52.528;19.760;2023-02-11T13:33:38;20.80;;;11.10;;
67500;SDS011;54349;52.528;19.760;2023-02-11T13:36:17;19.30;;;11.00;;
67500;SDS011;54349;52.528;19.760;2023-02-11T13:39:00;17.30;;;10.30;;
67500;SDS011;54349;52.528;19.760;2023-02-11T13:41:40;15.80;;;10.10;;
67500;SDS011;54349;52.528;19.760;2023-02-11T13:44:17;18.90;;;10.50;;
67500;SDS011;54349;52.528;19.760;2023-02-11T13:47:05;19.00;;;10.40;;
67500;SDS011;54349;52.528;19.760;2023-02-11T13:49:49;16.90;;;10.10;;
67500;SDS011;54349;52.528;19.760;2023-02-11T13:52:30;16.00;;;10.00;;
67500;SDS011;54349;52.528;19.760;2023-02-11T14:06:20;18.00;;;10.20;;
67500;SDS011;54349;52.528;19.760;2023-02-11T14:11:54;20.30;;;11.40;;
67500;SDS011;54349;52.528;19.760;2023-02-11T14:17:45;20.30;;;11.10;;
67500;SDS011;54349;52.528;19.760;2023-02-11T14:20:46;19.30;;;10.90;;
67500;SDS011;54349;52.528;19.760;2023-02-11T14:23:23;23.30;;;11.60;;
67500;SDS011;54349;52.528;19.760;2023-02-11T14:37:46;19.90;;;10.90;;
67500;SDS011;54349;52.528;19.760;2023-02-11T14:43:22;23.60;;;11.90;;
67500;SDS011;54349;52.528;19.760;2023-02-11T14:46:00;21.10;;;11.30;;
67500;SDS011;54349;52.528;19.760;2023-02-11T14:48:36;26.00;;;12.70;;
67500;SDS011;54349;52.528;19.760;2023-02-11T14:51:10;23.50;;;11.80;;
67500;SDS011;54349;52.528;19.760;2023-02-11T14:53:49;22.60;;;11.20;;
67500;SDS011;54349;52.528;19.760;2023-02-11T14:56:23;21.40;;;12.00;;
67500;SDS011;54349;52.528;19.760;2023-02-11T14:58:54;22.50;;;11.20;;
67500;SDS011;54349;52.528;19.760;2023-02-11T15:01:30;22.70;;;11.70;;
67500;SDS011;54349;52.528;19.760;2023-02-11T15:04:04;21.60;;;11.40;;
67500;SDS011;54349;52.528;19.760;2023-02-11T15:06:39;21.60;;;11.60;;
67500;SDS011;54349;52.528;19.760;2023-02-11T15:09:13;20.00;;;11.10;;
67500;SDS011;54349;52.528;19.760;2023-02-11T15:11:46;19.20;;;10.70;;
67500;SDS011;54349;52.528;19.760;2023-02-11T15:14:31;19.70;;;10.70;;
67500;SDS011;54349;52.528;19.760;2023-02-11T15:17:05;21.70;;;11.60;;
67500;SDS011;54349;52.528;19.760;2023-02-11T15:19:40;18.50;;;10.60;;
67500;SDS011;54349;52.528;19.760;2023-02-11T15:22:17;19.80;;;11.30;;
67500;SDS011;54349;52.528;19.760;2023-02-11T15:24:59;21.00;;;11.30;;
67500;SDS011;54349;52.528;19.760;2023-02-11T15:30:30;17.30;;;10.60;;
67500;SDS011;54349;52.528;19.760;2023-02-11T15:33:05;19.20;;;10.40;;
67500;SDS011;54349;52.528;19.760;2023-02-11T15:35:50;20.10;;;10.30;;
67500;SDS011;54349;52.528;19.760;2023-02-11T15:38:24;19.40;;;10.50;;
67500;SDS011;54349;52.528;19.760;2023-02-11T15:41:03;16.70;;;9.80;;
67500;SDS011;54349;52.528;19.760;2023-02-11T15:43:44;17.40;;;9.90;;
67500;SDS011;54349;52.528;19.760;2023-02-11T15:46:16;17.60;;;9.70;;
67500;SDS011;54349;52.528;19.760;2023-02-11T15:48:50;17.00;;;8.90;;
67500;SDS011;54349;52.528;19.760;2023-02-11T15:51:28;16.80;;;9.10;;
67500;SDS011;54349;52.528;19.760;2023-02-11T15:54:18;17.40;;;8.00;;
67500;SDS011;54349;52.528;19.760;2023-02-11T15:56:58;13.40;;;7.90;;
67500;SDS011;54349;52.528;19.760;2023-02-11T15:59:38;12.90;;;7.50;;
67500;SDS011;54349;52.528;19.760;2023-02-11T16:02:31;13.50;;;7.90;;
67500;SDS011;54349;52.528;19.760;2023-02-11T16:05:08;12.80;;;6.90;;
67500;SDS011;54349;52.528;19.760;2023-02-11T16:07:59;12.90;;;7.30;;
67500;SDS011;54349;52.528;19.760;2023-02-11T16:10:53;12.30;;;6.80;;
67500;SDS011;54349;52.528;19.760;2023-02-11T16:13:26;11.10;;;6.40;;
67500;SDS011;54349;52.528;19.760;2023-02-11T16:16:14;12.40;;;6.70;;
67500;SDS011;54349;52.528;19.760;2023-02-11T16:18:53;12.20;;;7.10;;
67500;SDS011;54349;52.528;19.760;2023-02-11T16:21:36;11.70;;;6.80;;
67500;SDS011;54349;52.528;19.760;2023-02-11T16:24:18;11.00;;;6.30;;
67500;SDS011;54349;52.528;19.760;2023-02-11T16:27:02;10.80;;;6.20;;
67500;SDS011;54349;52.528;19.760;2023-02-11T16:29:35;11.50;;;6.30;;
67500;SDS011;54349;52.528;19.760;2023-02-11T16:32:16;11.00;;;6.10;;
67500;SDS011;54349;52.528;19.760;2023-02-11T16:34:48;9.40;;;5.90;;
67500;SDS011;54349;52.528;19.760;2023-02-11T16:37:18;11.60;;;6.30;;
67500;SDS011;54349;52.528;19.760;2023-02-11T16:39:46;10.00;;;5.90;;
67500;SDS011;54349;52.528;19.760;2023-02-11T16:42:16;10.80;;;6.00;;
67500;SDS011;54349;52.528;19.760;2023-02-11T16:44:45;9.00;;;5.90;;
67500;SDS011;54349;52.528;19.760;2023-02-11T16:47:24;11.50;;;6.10;;
67500;SDS011;54349;52.528;19.760;2023-02-11T16:49:57;8.60;;;5.30;;
67500;SDS011;54349;52.528;19.760;2023-02-11T16:52:27;9.60;;;5.80;;
67500;SDS011;54349;52.528;19.760;2023-02-11T16:54:58;9.30;;;5.20;;
67500;SDS011;54349;52.528;19.760;2023-02-11T16:57:28;8.90;;;5.40;;
67500;SDS011;54349;52.528;19.760;2023-02-11T16:59:57;9.40;;;5.30;;
67500;SDS011;54349;52.528;19.760;2023-02-11T17:02:32;9.10;;;5.40;;
67500;SDS011;54349;52.528;19.760;2023-02-11T17:05:05;8.90;;;5.00;;
67500;SDS011;54349;52.528;19.760;2023-02-11T17:07:35;7.50;;;4.60;;
67500;SDS011;54349;52.528;19.760;2023-02-11T17:10:12;8.40;;;5.10;;
67500;SDS011;54349;52.528;19.760;2023-02-11T17:12:41;8.30;;;5.10;;
67500;SDS011;54349;52.528;19.760;2023-02-11T17:15:10;7.70;;;4.90;;
67500;SDS011;54349;52.528;19.760;2023-02-11T17:17:38;9.60;;;5.30;;
67500;SDS011;54349;52.528;19.760;2023-02-11T17:20:07;8.50;;;5.10;;
67500;SDS011;54349;52.528;19.760;2023-02-11T17:22:37;8.70;;;5.10;;
67500;SDS011;54349;52.528;19.760;2023-02-11T17:25:05;9.20;;;5.20;;
67500;SDS011;54349;52.528;19.760;2023-02-11T17:27:35;9.00;;;5.20;;
67500;SDS011;54349;52.528;19.760;2023-02-11T17:30:04;8.50;;;4.70;;
67500;SDS011;54349;52.528;19.760;2023-02-11T17:32:35;8.70;;;5.20;;
67500;SDS011;54349;52.528;19.760;2023-02-11T17:35:04;8.10;;;4.90;;
67500;SDS011;54349;52.528;19.760;2023-02-11T17:37:33;7.60;;;4.50;;
67500;SDS011;54349;52.528;19.760;2023-02-11T17:40:02;8.70;;;5.40;;